Time;durP1;ratioP1;P1;durP2;ratioP2;P2;SDS_P1;SDS_P2;PMS_P1;PMS_P2;Temp;Humidity;BMP_temperature;BMP_pressure;BME280_temperature;BME280_humidity;BME280_pressure;Samples;Min_cycle;Max_cycle;Signal;HPM_P1;HPM_P2
2022/05/28 00:01:19;;;;;;;6.35;1.50;;;11.70;99.90;;;;;;5071051;28;20078;-81
2022/05/28 00:03:46;;;;;;;10.10;1.70;;;11.60;99.90;;;;;;5088366;28;20390;-80
2022/05/28 00:06:14;;;;;;;9.02;1.30;;;11.50;99.90;;;;;;5072606;28;20031;-81
2022/05/28 00:08:40;;;;;;;17.20;2.53;;;11.50;99.90;;;;;;5077405;28;20443;-81
2022/05/28 00:11:28;;;;;;;17.42;2.20;;;11.40;99.90;;;;;;5072013;28;20044;-77
2022/05/28 00:13:54;;;;;;;15.02;2.22;;;11.30;99.90;;;;;;5091314;28;20044;-80
2022/05/28 00:16:22;;;;;;;16.27;2.28;;;11.20;99.90;;;;;;5078102;28;20039;-81
2022/05/28 00:18:54;;;;;;;12.93;1.73;;;11.20;99.90;;;;;;5079552;27;20031;-80
2022/05/28 00:21:21;;;;;;;16.38;2.05;;;11.50;99.90;;;;;;5099517;27;20043;-81
2022/05/28 00:23:47;;;;;;;16.48;1.95;;;11.10;99.90;;;;;;5087756;28;20081;-80
2022/05/28 00:26:14;;;;;;;12.35;2.03;;;11.50;99.90;;;;;;5071718;27;20490;-82
2022/05/28 00:28:40;;;;;;;18.35;2.38;;;11.00;99.90;;;;;;5073430;27;20073;-81
2022/05/28 00:31:06;;;;;;;13.63;2.10;;;11.00;99.90;;;;;;5106320;27;20393;-80
2022/05/28 00:33:32;;;;;;;16.33;1.88;;;10.90;99.90;;;;;;5094921;28;20036;-82
2022/05/28 00:35:59;;;;;;;15.32;2.40;;;11.00;99.90;;;;;;5082387;27;20036;-80
2022/05/28 00:38:27;;;;;;;14.52;1.92;;;10.90;99.90;;;;;;5071617;27;20091;-79
2022/05/28 00:40:56;;;;;;;10.65;1.65;;;10.90;99.90;;;;;;5092163;28;20044;-82
2022/05/28 00:43:22;;;;;;;12.07;2.20;;;10.90;99.90;;;;;;5080829;27;20078;-80
2022/05/28 00:45:50;;;;;;;11.52;1.70;;;10.80;99.90;;;;;;5088645;28;20114;-80
2022/05/28 00:48:22;;;;;;;14.38;1.67;;;10.80;99.90;;;;;;5076707;28;20039;-82
2022/05/28 00:50:49;;;;;;;18.13;1.85;;;10.80;99.90;;;;;;5091973;28;20598;-82
2022/05/28 00:53:15;;;;;;;13.38;1.85;;;11.30;99.90;;;;;;5089653;28;20043;-82
2022/05/28 00:55:41;;;;;;;9.25;1.70;;;10.70;99.90;;;;;;5072951;27;20071;-83
2022/05/28 00:58:09;;;;;;;11.10;1.92;;;10.70;99.90;;;;;;5080802;27;20047;-81
2022/05/28 01:00:36;;;;;;;12.50;2.08;;;10.70;99.90;;;;;;5072335;28;20043;-82
2022/05/28 01:03:20;;;;;;;10.60;1.80;;;10.70;99.90;;;;;;5074969;27;20035;-81
2022/05/28 01:05:55;;;;;;;13.32;2.25;;;10.70;99.90;;;;;;5068272;28;20056;-80
2022/05/28 01:08:39;;;;;;;;;;;10.70;99.90;;;;;;5089528;27;20046;-81
2022/05/28 01:11:19;;;;;;;18.80;2.47;;;10.60;99.90;;;;;;5079459;28;19928;-81
2022/05/28 01:14:10;;;;;;;14.98;2.08;;;10.70;99.90;;;;;;5073501;28;20139;-83
2022/05/28 01:17:07;;;;;;;16.58;2.13;;;10.60;99.90;;;;;;5090978;28;20502;-80
2022/05/28 01:19:52;;;;;;;10.88;1.80;;;10.60;99.90;;;;;;5026142;28;20053;-80
2022/05/28 01:22:32;;;;;;;12.60;1.65;;;10.60;99.90;;;;;;5002365;28;20118;-82
2022/05/28 01:25:13;;;;;;;16.35;2.20;;;10.70;99.90;;;;;;5007231;28;20036;-81
2022/05/28 01:27:43;;;;;;;15.20;1.85;;;10.60;99.90;;;;;;5005737;28;20433;-80
2022/05/28 01:30:13;;;;;;;13.43;2.00;;;10.60;99.90;;;;;;5021668;28;20051;-82
2022/05/28 01:32:41;;;;;;;11.57;2.25;;;10.70;99.90;;;;;;5029194;28;20187;-82
2022/05/28 01:35:13;;;;;;;14.00;1.92;;;11.10;99.90;;;;;;5021338;28;20090;-79
2022/05/28 01:37:39;;;;;;;18.00;2.25;;;10.70;99.90;;;;;;5042713;28;20379;-78
2022/05/28 01:40:08;;;;;;;10.32;1.75;;;10.70;99.90;;;;;;5039560;28;20041;-77
2022/05/28 01:42:37;;;;;;;12.95;2.33;;;10.60;99.90;;;;;;5028978;28;20072;-81
2022/05/28 01:45:05;;;;;;;10.68;1.65;;;10.60;99.90;;;;;;5023403;28;20045;-80
2022/05/28 01:47:33;;;;;;;9.80;1.73;;;10.60;99.90;;;;;;5040305;28;20103;-81
2022/05/28 01:50:01;;;;;;;13.73;1.95;;;10.50;99.90;;;;;;5021781;28;20057;-80
2022/05/28 01:52:29;;;;;;;16.65;1.85;;;10.50;99.90;;;;;;5009531;28;20073;-82
2022/05/28 01:54:57;;;;;;;13.25;2.03;;;10.50;99.90;;;;;;5013786;28;20404;-82
2022/05/28 01:57:23;;;;;;;15.48;1.92;;;11.20;99.90;;;;;;5072321;28;20036;-82
2022/05/28 01:59:49;;;;;;;15.30;2.20;;;10.40;99.90;;;;;;5068337;28;20067;-80
2022/05/28 02:02:15;;;;;;;18.13;2.40;;;10.50;99.90;;;;;;5084765;27;20082;-81
2022/05/28 02:04:45;;;;;;;18.30;2.50;;;10.50;99.90;;;;;;5085826;28;20114;-81
2022/05/28 02:07:12;;;;;;;16.40;2.25;;;11.00;99.90;;;;;;5090923;27;20539;-82
2022/05/28 02:09:42;;;;;;;16.15;2.45;;;10.40;99.90;;;;;;5074840;28;20059;-80
2022/05/28 02:12:25;;;;;;;10.75;1.92;;;10.40;99.90;;;;;;5079439;27;20119;-82
2022/05/28 02:15:05;;;;;;;13.07;2.25;;;10.40;99.90;;;;;;5100346;27;20486;-80
2022/05/28 02:17:57;;;;;;;14.25;2.30;;;10.40;99.90;;;;;;5081356;27;20350;-82
2022/05/28 02:20:35;;;;;;;14.35;2.05;;;10.40;99.90;;;;;;5073960;27;20028;-81
2022/05/28 02:23:23;;;;;;;15.48;2.60;;;10.30;99.90;;;;;;5083164;27;20046;-81
2022/05/28 02:26:04;;;;;;;15.82;2.45;;;10.50;99.90;;;;;;5082951;28;20032;-81
2022/05/28 02:28:32;;;;;;;11.30;1.95;;;10.50;99.90;;;;;;5095905;27;20039;-80
2022/05/28 02:31:02;;;;;;;14.32;2.38;;;10.50;99.90;;;;;;5111873;27;20477;-80
2022/05/28 02:33:32;;;;;;;13.07;2.42;;;10.60;99.90;;;;;;5080370;27;20043;-81
2022/05/28 02:35:59;;;;;;;21.17;2.45;;;10.60;99.90;;;;;;5067025;28;20035;-81
2022/05/28 02:38:25;;;;;;;20.77;2.90;;;10.90;99.90;;;;;;5085722;28;20132;-81
2022/05/28 02:40:54;;;;;;;19.02;2.33;;;10.70;99.90;;;;;;5104516;27;20054;-82
2022/05/28 02:43:21;;;;;;;17.65;2.65;;;11.20;99.90;;;;;;5073233;28;20067;-82
2022/05/28 02:45:48;;;;;;;22.10;2.80;;;10.80;99.90;;;;;;5090572;28;20123;-82
2022/05/28 02:48:13;;;;;;;21.40;2.75;;;10.80;99.90;;;;;;5108039;27;20127;-82
2022/05/28 02:50:39;;;;;;;13.52;2.45;;;10.90;99.90;;;;;;5078420;28;20127;-82
2022/05/28 02:53:05;;;;;;;17.10;2.65;;;11.20;99.90;;;;;;5085906;28;20043;-82
2022/05/28 02:55:30;;;;;;;21.00;2.83;;;11.40;99.90;;;;;;5068507;28;20739;-82
2022/05/28 02:57:56;;;;;;;18.80;3.20;;;10.80;99.90;;;;;;5064163;27;20035;-82
2022/05/28 03:00:22;;;;;;;13.43;2.65;;;11.40;99.90;;;;;;5071658;27;20031;-81
2022/05/28 03:02:48;;;;;;;22.98;2.75;;;10.50;99.90;;;;;;5077057;28;20088;-82
2022/05/28 03:08:55;;;;;;;18.60;3.42;;;10.50;99.90;;;;;;5114416;28;20079;-81
2022/05/28 03:11:21;;;;;;;23.27;2.88;;;10.40;99.90;;;;;;5077755;28;20111;-83
2022/05/28 03:13:47;;;;;;;21.27;3.72;;;10.50;99.90;;;;;;5092958;28;20056;-82
2022/05/28 03:16:13;;;;;;;17.02;2.85;;;10.30;99.90;;;;;;5067309;28;20119;-83
2022/05/28 03:18:39;;;;;;;15.75;2.92;;;10.30;99.90;;;;;;5079434;28;20486;-83
2022/05/28 03:21:06;;;;;;;22.42;3.10;;;10.80;99.90;;;;;;5072939;28;20332;-82
2022/05/28 03:23:32;;;;;;;23.88;3.30;;;10.30;99.90;;;;;;5090320;28;20087;-82
2022/05/28 03:26:08;;;;;;;15.55;2.60;;;10.60;99.90;;;;;;5080897;28;20036;-82
2022/05/28 03:28:34;;;;;;;20.10;3.13;;;10.30;99.90;;;;;;5086994;28;20044;-82
2022/05/28 03:31:00;;;;;;;14.73;2.70;;;10.20;99.90;;;;;;5088905;28;20402;-82
2022/05/28 03:33:25;;;;;;;19.55;2.90;;;10.30;99.90;;;;;;5079334;28;20085;-84
2022/05/28 03:35:51;;;;;;;16.02;2.50;;;10.30;99.90;;;;;;5095932;28;20040;-83
2022/05/28 03:38:16;;;;;;;18.85;2.75;;;10.50;99.90;;;;;;5092262;28;20066;-84
2022/05/28 03:40:45;;;;;;;18.20;2.92;;;10.40;99.90;;;;;;5074634;28;20059;-81
2022/05/28 03:43:11;;;;;;;22.52;3.30;;;10.40;99.90;;;;;;5091202;28;20838;-81
2022/05/28 03:45:37;;;;;;;20.27;2.70;;;10.50;99.90;;;;;;5090482;28;20046;-81
2022/05/28 03:48:05;;;;;;;10.55;2.03;;;10.40;99.90;;;;;;5076880;28;20094;-82
2022/05/28 03:50:31;;;;;;;21.80;3.22;;;10.40;99.90;;;;;;5108894;28;20053;-84
2022/05/28 03:52:56;;;;;;;19.10;2.95;;;10.40;99.90;;;;;;5090381;28;20504;-82
2022/05/28 03:55:22;;;;;;;25.48;3.55;;;10.40;99.90;;;;;;5094515;27;20104;-84
2022/05/28 03:57:48;;;;;;;19.15;3.28;;;10.70;99.90;;;;;;5111021;28;20035;-85
2022/05/28 04:00:15;;;;;;;19.92;2.92;;;10.30;99.90;;;;;;5090644;27;21644;-83
2022/05/28 04:02:40;;;;;;;15.23;2.63;;;10.30;99.90;;;;;;5094301;27;20470;-87
2022/05/28 04:05:06;;;;;;;16.15;2.60;;;10.30;99.90;;;;;;5095754;28;20051;-86
2022/05/28 04:07:32;;;;;;;10.20;1.52;;;10.30;99.90;;;;;;5097964;27;20050;-86
2022/05/28 04:09:58;;;;;;;15.38;2.83;;;10.30;99.90;;;;;;5109801;27;20525;-84
2022/05/28 04:12:23;;;;;;;16.05;2.72;;;11.00;99.90;;;;;;5097346;27;20502;-83
2022/05/28 04:14:49;;;;;;;19.20;3.13;;;10.30;99.90;;;;;;5084522;28;20028;-83
2022/05/28 04:17:15;;;;;;;18.25;2.67;;;10.60;99.90;;;;;;5098043;27;20039;-83
2022/05/28 04:19:41;;;;;;;20.25;3.00;;;10.30;99.90;;;;;;5088557;27;20113;-85
2022/05/28 04:22:07;;;;;;;17.17;2.88;;;10.40;99.90;;;;;;5115567;27;20481;-84
2022/05/28 04:24:33;;;;;;;20.40;2.75;;;10.50;99.90;;;;;;5092102;27;20042;-84
2022/05/28 04:26:59;;;;;;;18.92;3.13;;;10.50;99.90;;;;;;5081964;27;20382;-85
2022/05/28 04:29:24;;;;;;;19.80;2.80;;;10.60;99.90;;;;;;5095752;27;20120;-84
2022/05/28 04:31:50;;;;;;;13.20;2.30;;;10.80;99.90;;;;;;5096683;28;20047;-85
2022/05/28 04:34:15;;;;;;;18.33;2.80;;;10.90;99.90;;;;;;5089667;28;20131;-82
2022/05/28 04:40:22;;;;;;;22.08;2.90;;;11.40;99.90;;;;;;5130103;27;20182;-81
2022/05/28 04:42:48;;;;;;;19.35;3.03;;;11.40;99.90;;;;;;5108347;28;20444;-81
2022/05/28 04:45:14;;;;;;;17.00;3.25;;;11.80;99.90;;;;;;5084297;28;20043;-83
2022/05/28 04:47:40;;;;;;;12.40;2.70;;;11.20;99.90;;;;;;5090014;28;20042;-83
2022/05/28 04:50:07;;;;;;;13.02;2.65;;;11.60;99.90;;;;;;5092057;28;20055;-83
2022/05/28 04:52:32;;;;;;;19.30;3.05;;;11.10;99.90;;;;;;5095464;28;20093;-85
2022/05/28 04:54:58;;;;;;;27.92;3.78;;;11.10;99.90;;;;;;5102973;27;20040;-82
2022/05/28 04:57:24;;;;;;;16.30;3.28;;;11.10;99.90;;;;;;5073845;27;20180;-85
2022/05/28 04:59:49;;;;;;;19.23;2.75;;;11.40;99.90;;;;;;5076063;27;20039;-83
2022/05/28 05:02:15;;;;;;;18.50;3.10;;;11.30;99.90;;;;;;5090282;27;20133;-83
2022/05/28 05:04:42;;;;;;;15.23;2.63;;;11.50;99.90;;;;;;5103317;27;20064;-83
2022/05/28 05:07:08;;;;;;;20.25;2.85;;;11.30;99.90;;;;;;5079917;27;20069;-86
2022/05/28 05:09:34;;;;;;;14.00;2.33;;;11.40;99.90;;;;;;5082723;27;20063;-84
2022/05/28 05:11:59;;;;;;;13.10;2.30;;;11.60;99.90;;;;;;5099511;28;20087;-85
2022/05/28 05:14:26;;;;;;;26.30;2.72;;;11.70;99.90;;;;;;5112023;27;20494;-84
2022/05/28 05:16:52;;;;;;;14.82;2.88;;;12.30;99.90;;;;;;5099493;28;20036;-84
2022/05/28 05:19:18;;;;;;;14.98;2.60;;;11.80;99.90;;;;;;5095966;28;20044;-84
2022/05/28 05:22:02;;;;;;;18.23;3.15;;;11.90;99.90;;;;;;5094727;27;20035;-85
2022/05/28 05:24:28;;;;;;;24.38;3.20;;;11.90;99.90;;;;;;5102891;27;20062;-84
2022/05/28 05:26:54;;;;;;;25.60;3.05;;;11.90;99.90;;;;;;5079780;27;20451;-85
2022/05/28 05:29:19;;;;;;;14.77;2.50;;;11.90;99.90;;;;;;5090758;27;20043;-83
2022/05/28 05:31:45;;;;;;;13.18;3.28;;;11.90;99.90;;;;;;5101103;27;20035;-84
2022/05/28 05:34:11;;;;;;;19.77;3.15;;;12.10;99.90;;;;;;5091594;28;20031;-82
2022/05/28 05:36:37;;;;;;;18.27;2.50;;;12.00;99.90;;;;;;5103621;27;20036;-82
2022/05/28 05:39:03;;;;;;;23.75;3.47;;;11.90;99.90;;;;;;5093448;27;20035;-82
2022/05/28 05:41:29;;;;;;;21.25;3.10;;;11.90;99.90;;;;;;5094000;27;20042;-84
2022/05/28 05:43:55;;;;;;;15.65;2.72;;;12.00;99.90;;;;;;5080027;27;20039;-83
2022/05/28 05:46:21;;;;;;;15.50;2.63;;;12.00;99.90;;;;;;5110719;27;20039;-84
2022/05/28 05:48:47;;;;;;;16.90;2.67;;;12.10;99.90;;;;;;5092606;28;20459;-84
2022/05/28 05:51:17;;;;;;;15.88;2.80;;;12.10;99.90;;;;;;5085814;28;20304;-82
2022/05/28 05:53:43;;;;;;;21.63;3.15;;;12.10;99.90;;;;;;5093713;27;20055;-82
2022/05/28 05:56:09;;;;;;;19.00;2.83;;;12.20;99.90;;;;;;5103698;27;20034;-84
2022/05/28 05:58:35;;;;;;;19.45;3.55;;;12.30;99.90;;;;;;5104118;27;20039;-82
2022/05/28 06:01:02;;;;;;;21.58;3.85;;;12.30;99.90;;;;;;5088844;28;20121;-83
2022/05/28 06:03:28;;;;;;;20.73;3.40;;;12.20;99.90;;;;;;5115107;27;20195;-83
2022/05/28 06:06:33;;;;;;;20.50;3.55;;;12.20;99.90;;;;;;5086268;28;20147;-79
2022/05/28 06:08:58;;;;;;;24.45;3.55;;;12.20;99.90;;;;;;5114396;28;20048;-82
2022/05/28 06:11:25;;;;;;;16.02;3.10;;;12.30;99.90;;;;;;5113282;27;20046;-82
2022/05/28 06:13:51;;;;;;;18.05;3.05;;;12.60;99.90;;;;;;5088744;28;20503;-82
2022/05/28 06:16:17;;;;;;;24.75;3.20;;;12.50;99.90;;;;;;5092289;28;20036;-83
2022/05/28 06:18:44;;;;;;;11.20;2.30;;;12.60;99.90;;;;;;5071490;28;20046;-83
2022/05/28 06:21:28;;;;;;;19.27;2.70;;;12.50;99.90;;;;;;5085690;28;20127;-82
2022/05/28 06:23:54;;;;;;;23.08;3.22;;;12.80;99.90;;;;;;5083204;28;20065;-83
2022/05/28 06:26:20;;;;;;;9.02;2.15;;;12.10;99.90;;;;;;5077802;28;20043;-82
2022/05/28 06:28:46;;;;;;;14.43;2.72;;;12.00;99.90;;;;;;5085874;28;20051;-82
2022/05/28 06:31:13;;;;;;;10.25;1.85;;;11.90;99.90;;;;;;5080628;28;20040;-83
2022/05/28 06:33:40;;;;;;;12.30;2.10;;;12.00;99.90;;;;;;5077237;28;20035;-84
2022/05/28 06:36:07;;;;;;;12.07;2.45;;;12.10;99.90;;;;;;5082642;28;20051;-83
2022/05/28 06:38:34;;;;;;;13.27;2.50;;;12.20;99.90;;;;;;5091509;28;20424;-81
2022/05/28 06:41:00;;;;;;;8.65;1.80;;;12.30;99.90;;;;;;5084280;28;20039;-83
2022/05/28 06:43:26;;;;;;;6.38;1.40;;;12.50;99.90;;;;;;5070736;28;20100;-81
2022/05/28 06:45:53;;;;;;;12.70;2.50;;;12.50;99.90;;;;;;5087665;28;20051;-83
2022/05/28 06:48:19;;;;;;;14.18;1.83;;;12.70;99.90;;;;;;5093217;28;20036;-82
2022/05/28 06:51:03;;;;;;;22.48;2.47;;;12.50;99.90;;;;;;5088932;28;20096;-81
2022/05/28 06:53:32;;;;;;;16.50;2.72;;;12.60;99.90;;;;;;5107127;28;20040;-80
2022/05/28 06:55:58;;;;;;;19.35;2.72;;;12.60;99.90;;;;;;5099910;28;20040;-80
2022/05/28 06:58:23;;;;;;;16.63;2.63;;;12.50;99.90;;;;;;5095865;28;20056;-80
2022/05/28 07:00:49;;;;;;;12.30;2.90;;;12.40;99.90;;;;;;5101214;28;20047;-80
2022/05/28 07:03:18;;;;;;;19.58;2.85;;;12.30;99.90;;;;;;5093097;28;20099;-80
2022/05/28 07:05:43;;;;;;;14.23;2.38;;;12.50;99.90;;;;;;5075605;28;20036;-83
2022/05/28 07:08:09;;;;;;;14.30;2.40;;;12.50;99.90;;;;;;5078786;28;20564;-82
2022/05/28 07:10:39;;;;;;;19.80;3.08;;;12.50;99.90;;;;;;5095971;28;20042;-82
2022/05/28 07:13:06;;;;;;;17.88;2.50;;;12.60;99.90;;;;;;5087037;28;20184;-81
2022/05/28 07:15:32;;;;;;;18.60;3.05;;;12.70;99.90;;;;;;5075703;28;20040;-81
2022/05/28 07:17:58;;;;;;;9.23;1.70;;;12.70;99.90;;;;;;5077055;28;20032;-82
2022/05/28 07:20:28;;;;;;;17.88;3.10;;;12.70;99.90;;;;;;5086240;28;20517;-83
2022/05/28 07:22:53;;;;;;;23.27;2.92;;;12.70;99.90;;;;;;5088546;28;20032;-81
2022/05/28 07:25:19;;;;;;;17.73;3.17;;;12.70;99.90;;;;;;5089002;28;20105;-83
2022/05/28 07:27:45;;;;;;;21.38;3.10;;;12.70;99.90;;;;;;5085733;28;20055;-83
2022/05/28 07:30:11;;;;;;;16.45;2.85;;;12.70;99.90;;;;;;5086408;28;20043;-81
2022/05/28 07:32:37;;;;;;;15.48;2.33;;;12.50;99.90;;;;;;5096040;28;20039;-82
2022/05/28 07:35:03;;;;;;;17.58;3.05;;;12.70;99.90;;;;;;5095346;28;20044;-81
2022/05/28 07:40:54;;;;;;;19.83;3.28;;;12.90;99.90;;;;;;5094828;28;20044;-80
2022/05/28 07:43:22;;;;;;;18.23;2.95;;;13.30;99.90;;;;;;5087839;28;20032;-81
2022/05/28 07:45:48;;;;;;;16.80;2.78;;;13.30;99.90;;;;;;5090742;28;20051;-81
2022/05/28 07:48:15;;;;;;;17.52;3.05;;;13.40;99.90;;;;;;5076153;28;20129;-81
2022/05/28 07:51:22;;;;;;;16.52;2.55;;;13.30;99.90;;;;;;5076679;28;20501;-81
2022/05/28 07:53:48;;;;;;;22.45;3.00;;;13.40;99.90;;;;;;5075015;28;20552;-81
2022/05/28 07:56:15;;;;;;;26.17;3.63;;;13.60;99.90;;;;;;5070239;28;20155;-81
2022/05/28 07:58:41;;;;;;;21.48;2.97;;;13.80;99.90;;;;;;5092052;28;20040;-82
2022/05/28 08:01:08;;;;;;;15.45;2.92;;;13.80;99.90;;;;;;5084183;28;20517;-81
2022/05/28 08:03:35;;;;;;;17.88;2.63;;;13.80;99.90;;;;;;5101450;28;20044;-79
2022/05/28 08:06:01;;;;;;;13.27;2.40;;;13.60;99.90;;;;;;5096178;28;20076;-83
2022/05/28 08:08:27;;;;;;;16.35;2.63;;;13.50;99.90;;;;;;5078592;28;20447;-78
2022/05/28 08:10:54;;;;;;;13.25;2.50;;;13.70;99.90;;;;;;5078246;28;20048;-77
2022/05/28 08:13:24;;;;;;;14.70;2.33;;;13.90;99.90;;;;;;5062523;28;20052;-78
2022/05/28 08:15:52;;;;;;;18.42;2.80;;;13.80;99.90;;;;;;5075640;28;20400;-80
2022/05/28 08:18:21;;;;;;;14.18;2.13;;;13.80;99.90;;;;;;5070009;28;20028;-80
2022/05/28 08:23:43;;;;;;;14.75;2.70;;;13.80;99.90;;;;;;5095207;28;20131;-78
2022/05/28 08:26:11;;;;;;;22.60;3.40;;;13.90;99.90;;;;;;5074658;28;20036;-80
2022/05/28 08:28:39;;;;;;;19.58;2.92;;;13.80;99.90;;;;;;5073393;28;20112;-81
2022/05/28 08:31:05;;;;;;;16.38;2.42;;;14.00;99.90;;;;;;5095083;28;20044;-80
2022/05/28 08:33:32;;;;;;;14.18;2.40;;;13.80;99.90;;;;;;5084805;28;20054;-81
2022/05/28 08:35:59;;;;;;;11.02;2.40;;;13.90;99.90;;;;;;5070043;28;20459;-78
2022/05/28 08:38:26;;;;;;;20.38;2.67;;;13.70;99.90;;;;;;5095823;27;20063;-81
2022/05/28 08:40:59;;;;;;;15.57;3.35;;;13.50;99.90;;;;;;5090988;28;20138;-78
2022/05/28 08:43:37;;;;;;;14.70;3.00;;;13.60;99.90;;;;;;5074728;28;20476;-80
2022/05/28 08:46:04;;;;;;;14.48;2.50;;;13.80;99.90;;;;;;5073722;28;20048;-79
2022/05/28 08:48:51;;;;;;;15.77;2.63;;;14.00;99.90;;;;;;5082965;28;20044;-77
2022/05/28 08:51:40;;;;;;;16.50;2.53;;;14.10;99.90;;;;;;5066750;28;20556;-81
2022/05/28 08:54:16;;;;;;;14.02;2.35;;;13.80;99.90;;;;;;5081698;28;20074;-82
2022/05/28 08:56:45;;;;;;;15.48;2.75;;;13.50;99.90;;;;;;5068268;28;20097;-78
2022/05/28 08:59:27;;;;;;;9.43;2.25;;;13.40;99.90;;;;;;5092181;28;20039;-81
2022/05/28 09:01:54;;;;;;;16.88;2.55;;;13.80;99.90;;;;;;5100500;28;20063;-79
2022/05/28 09:04:35;;;;;;;12.50;2.40;;;13.60;99.90;;;;;;5090596;28;20044;-79
2022/05/28 09:07:06;;;;;;;15.15;2.75;;;13.70;99.90;;;;;;5124438;28;20047;-83
2022/05/28 09:09:47;;;;;;;16.02;2.72;;;13.80;99.90;;;;;;5105134;28;20048;-81
2022/05/28 09:12:31;;;;;;;13.25;2.05;;;13.60;99.90;;;;;;5106208;28;20109;-80
2022/05/28 09:14:57;;;;;;;24.97;3.37;;;13.50;99.90;;;;;;5092314;28;20036;-78
2022/05/28 09:17:34;;;;;;;15.40;2.60;;;13.60;99.90;;;;;;5106266;28;20063;-77
2022/05/28 09:20:12;;;;;;;15.90;2.25;;;13.60;99.90;;;;;;5071418;28;20055;-77
2022/05/28 09:22:38;;;;;;;18.60;2.63;;;13.40;99.90;;;;;;5070376;28;20043;-80
2022/05/28 09:25:06;;;;;;;20.13;3.20;;;13.50;99.90;;;;;;5096850;28;20055;-80
2022/05/28 09:27:38;;;;;;;17.15;3.08;;;13.70;99.90;;;;;;5054066;27;20047;-81
2022/05/28 09:30:09;;;;;;;22.85;3.97;;;13.70;99.90;;;;;;5092570;28;20039;-79
2022/05/28 09:32:47;;;;;;;18.35;3.33;;;13.80;99.90;;;;;;5082747;28;20048;-80
2022/05/28 09:35:33;;;;;;;14.60;2.88;;;14.20;99.90;;;;;;5067398;28;20031;-80
2022/05/28 09:38:19;;;;;;;18.35;2.90;;;14.30;99.90;;;;;;5082844;28;20036;-81
2022/05/28 09:41:20;;;;;;;17.13;2.97;;;14.20;99.90;;;;;;5087377;28;20047;-82
2022/05/28 09:44:17;;;;;;;14.75;2.97;;;14.00;99.90;;;;;;5064543;28;20577;-85
2022/05/28 09:46:44;;;;;;;12.88;2.00;;;13.90;99.90;;;;;;5050774;28;20033;-83
2022/05/28 09:49:15;;;;;;;13.15;2.33;;;13.80;99.90;;;;;;5026374;28;20041;-82
2022/05/28 09:51:56;;;;;;;11.60;1.95;;;13.60;99.90;;;;;;5033488;28;20049;-83
2022/05/28 09:54:30;;;;;;;18.20;2.17;;;13.80;99.90;;;;;;5050770;28;20052;-84
2022/05/28 09:56:58;;;;;;;17.10;2.88;;;14.10;99.90;;;;;;5028766;28;20041;-85
2022/05/28 09:59:29;;;;;;;15.77;2.78;;;14.40;99.90;;;;;;5029062;28;21464;-81
2022/05/28 10:02:13;;;;;;;19.47;2.30;;;14.30;99.90;;;;;;5035372;28;20125;-81
2022/05/28 10:04:51;;;;;;;9.95;2.15;;;14.10;99.90;;;;;;5042782;28;20808;-82
2022/05/28 10:07:31;;;;;;;17.45;2.70;;;14.00;99.90;;;;;;5046472;28;20481;-79
2022/05/28 10:09:58;;;;;;;18.98;3.00;;;14.10;99.90;;;;;;5036261;28;20040;-80
2022/05/28 10:12:29;;;;;;;15.73;2.22;;;14.10;99.90;;;;;;5050523;28;20115;-80
2022/05/28 10:15:09;;;;;;;16.23;2.80;;;14.10;99.90;;;;;;5036198;28;20476;-81
2022/05/28 10:17:36;;;;;;;16.05;2.50;;;14.10;99.90;;;;;;5036540;28;20040;-83
2022/05/28 10:20:13;;;;;;;16.20;2.67;;;14.30;99.90;;;;;;5055755;28;20075;-83
2022/05/28 10:22:38;;;;;;;11.77;1.90;;;14.30;99.90;;;;;;5091793;28;20055;-79
2022/05/28 10:25:25;;;;;;;16.63;2.08;;;13.90;99.90;;;;;;5067957;28;20478;-80
2022/05/28 10:27:53;;;;;;;12.15;1.92;;;13.90;99.90;;;;;;5073015;28;20619;-81
2022/05/28 10:30:37;;;;;;;19.13;2.03;;;13.70;99.90;;;;;;5058149;28;20074;-83
2022/05/28 10:33:08;;;;;;;14.80;2.17;;;14.00;99.90;;;;;;5090427;28;20105;-78
2022/05/28 10:35:35;;;;;;;11.20;2.47;;;14.30;99.90;;;;;;5084479;27;20512;-77
2022/05/28 10:38:24;;;;;;;12.48;1.88;;;14.50;99.90;;;;;;5101184;27;20138;-75
2022/05/28 10:41:00;;;;;;;11.60;1.83;;;14.40;99.90;;;;;;5073266;28;20065;-80
2022/05/28 10:43:33;;;;;;;11.05;1.90;;;14.50;99.90;;;;;;5095338;28;20122;-83
2022/05/28 10:46:14;;;;;;;11.48;1.60;;;14.60;99.90;;;;;;5057681;28;20043;-79
2022/05/28 10:49:21;;;;;;;15.18;2.05;;;14.60;99.90;;;;;;5057138;28;20047;-80
2022/05/28 10:52:06;;;;;;;14.38;2.30;;;14.30;99.90;;;;;;4993825;28;20089;-82
2022/05/28 10:54:51;;;;;;;13.38;2.35;;;14.50;99.90;;;;;;5008677;28;20989;-80
2022/05/28 10:57:40;;;;;;;;;;;14.70;99.90;;;;;;5013285;28;20495;-81
2022/05/28 11:00:19;;;;;;;14.73;2.35;;;14.70;99.90;;;;;;5023736;28;20000;-82
2022/05/28 11:03:03;;;;;;;12.55;2.05;;;14.50;99.90;;;;;;5025343;28;20528;-81
2022/05/28 11:05:46;;;;;;;8.75;1.88;;;14.60;99.90;;;;;;5012779;28;20049;-80
2022/05/28 11:08:44;;;;;;;12.88;2.08;;;14.90;99.90;;;;;;5010052;28;20103;-78
2022/05/28 11:11:26;;;;;;;10.05;1.77;;;15.50;99.90;;;;;;5010311;28;20448;-78
2022/05/28 11:14:08;;;;;;;11.77;1.95;;;16.00;99.90;;;;;;5007324;28;20053;-80
2022/05/28 11:17:19;;;;;;;15.10;2.00;;;15.90;99.90;;;;;;5014490;28;20048;-79
2022/05/28 11:19:47;;;;;;;14.07;2.30;;;16.10;99.90;;;;;;5018719;28;20405;-80
2022/05/28 11:22:24;;;;;;;11.52;1.80;;;15.90;99.90;;;;;;5008342;28;20064;-75
2022/05/28 11:24:55;;;;;;;17.85;2.22;;;15.50;99.90;;;;;;5008254;28;20076;-80
2022/05/28 11:27:54;;;;;;;15.48;2.40;;;15.40;99.90;;;;;;5005100;28;20488;-78
2022/05/28 11:30:30;;;;;;;10.68;1.80;;;15.60;99.90;;;;;;5079688;28;20047;-74
2022/05/28 11:33:00;;;;;;;12.52;2.03;;;16.10;99.90;;;;;;5078170;28;20063;-78
2022/05/28 11:35:34;;;;;;;20.05;2.63;;;15.90;99.90;;;;;;5094627;28;20128;-78
2022/05/28 11:38:25;;;;;;;14.82;3.13;;;15.70;99.90;;;;;;5087828;28;21053;-77
2022/05/28 11:40:57;;;;;;;17.80;3.13;;;14.90;99.90;;;;;;5088307;28;20189;-77
2022/05/28 11:43:30;;;;;;;11.48;2.58;;;14.60;99.90;;;;;;5092063;28;20057;-73
2022/05/28 11:46:01;;;;;;;14.88;2.45;;;14.10;99.90;;;;;;5097973;28;20044;-74
2022/05/28 11:51:37;;;;;;;13.13;2.80;;;14.00;99.90;;;;;;5092849;28;20350;-77
2022/05/28 11:54:49;;;;;;;15.02;2.78;;;14.30;99.90;;;;;;5108619;28;20054;-74
2022/05/28 11:57:50;;;;;;;26.98;3.53;;;14.40;99.90;;;;;;4986397;28;20188;-74
2022/05/28 12:00:19;;;;;;;15.40;2.90;;;15.00;99.90;;;;;;4993485;28;20049;-75
2022/05/28 12:02:54;;;;;;;14.18;2.90;;;14.90;99.90;;;;;;4974858;28;20100;-73
2022/05/28 12:05:23;;;;;;;15.35;2.38;;;15.40;99.90;;;;;;4987568;28;20112;-77
2022/05/28 12:07:59;;;;;;;12.13;2.20;;;15.60;99.90;;;;;;4985237;28;20050;-79
2022/05/28 12:10:51;;;;;;;11.38;2.10;;;16.00;99.90;;;;;;4965519;28;20050;-78
2022/05/28 12:13:32;;;;;;;15.55;2.38;;;16.30;99.90;;;;;;4891020;29;20048;-75
2022/05/28 12:16:25;;;;;;;12.10;2.58;;;16.00;99.90;;;;;;4912375;29;20048;-79
2022/05/28 12:19:18;;;;;;;14.65;2.50;;;16.00;99.90;;;;;;4911768;29;20094;-80
2022/05/28 12:21:45;;;;;;;10.30;2.03;;;16.30;99.90;;;;;;4898316;29;20104;-76
2022/05/28 12:24:27;;;;;;;9.75;2.05;;;15.60;99.90;;;;;;4911107;29;20083;-78
2022/05/28 12:29:33;;;;;;;15.20;2.80;;;15.70;99.90;;;;;;4909007;29;20040;-77
2022/05/28 12:32:12;;;;;;;12.30;2.20;;;16.00;99.90;;;;;;4931423;28;20124;-78
2022/05/28 12:34:40;;;;;;;12.32;2.70;;;15.60;99.90;;;;;;4971627;28;20513;-77
2022/05/28 12:37:15;;;;;;;15.75;2.17;;;15.70;99.90;;;;;;4994568;28;20084;-79
2022/05/28 12:39:49;;;;;;;11.48;2.20;;;15.90;99.90;;;;;;4990929;28;20119;-79
2022/05/28 12:42:26;;;;;;;11.57;2.53;;;15.90;99.90;;;;;;4981773;28;20405;-77
2022/05/28 12:44:55;;;;;;;14.25;2.20;;;15.90;99.90;;;;;;5002145;28;20053;-77
2022/05/28 12:47:32;;;;;;;10.60;2.30;;;16.10;99.90;;;;;;4981709;28;20057;-84
2022/05/28 12:50:16;;;;;;;12.75;2.05;;;16.70;99.90;;;;;;5014798;28;20054;-84
2022/05/28 12:53:10;;;;;;;15.70;2.40;;;17.10;99.90;;;;;;5075769;28;20470;-82
2022/05/28 12:55:38;;;;;;;14.88;2.10;;;16.60;99.90;;;;;;5093545;28;20039;-85
2022/05/28 12:58:28;;;;;;;9.82;2.03;;;16.60;99.90;;;;;;5069425;28;20044;-83
2022/05/28 13:00:58;;;;;;;7.88;2.05;;;17.00;99.90;;;;;;5078811;28;20079;-85
2022/05/28 13:03:30;;;;;;;7.18;1.42;;;16.80;99.90;;;;;;5105036;27;20047;-82
2022/05/28 13:06:12;;;;;;;15.68;2.30;;;16.80;99.90;;;;;;5087447;27;20059;-83
2022/05/28 13:08:48;;;;;;;12.20;2.08;;;16.90;99.90;;;;;;5096392;27;20039;-82
2022/05/28 13:11:40;;;;;;;9.60;2.15;;;17.30;99.90;;;;;;5070364;28;20142;-82
2022/05/28 13:14:21;;;;;;;9.55;2.22;;;16.70;99.90;;;;;;5009117;28;20212;-80
2022/05/28 13:16:49;;;;;;;12.20;2.60;;;16.60;99.90;;;;;;4989331;28;20073;-80
2022/05/28 13:19:43;;;;;;;12.18;2.13;;;16.00;99.90;;;;;;4990831;28;20050;-78
2022/05/28 13:26:21;;;;;;;10.15;1.67;;;16.70;99.90;;;;;;5010597;28;20048;-77